Terminal Aerodrome Forecast
Issued by NWS Sterling, VA

Current Version | Previous Version | Graphics & Text | Print | Product List | Glossary Off
Versions: 1 2 3 4 5 6 7 8 9 10 11 12 13 14 15 16 17 18 19 20 21 22 23 24 25 26 27 28 29 30 31 32

000
FTUS41 KLWX 211700 RRA
TAFIAD
TAF
KIAD 211746Z 2118/2224 30004KT P6SM OVC050
     FM212100 VRB03KT 6SM -SHRA BKN035
     FM220000 32005KT P6SM OVC050
     FM220600 33006KT 3SM -SHRA OVC008
     FM221200 33012G17KT P6SM OVC008
     FM221900 33016G22KT P6SM BKN025=

USA.gov is the U.S. government's official web portal to all federal, state and local government web resources and services.